createdAt,value
2017-12-20T00:00:13.450Z,19.67
2017-12-20T00:02:41.817Z,19.42
2017-12-20T00:05:10.251Z,18.05
2017-12-20T00:07:38.627Z,21.90
2017-12-20T00:10:06.948Z,18.05
2017-12-20T00:12:35.282Z,17.73
2017-12-20T00:15:03.618Z,14.77
2017-12-20T00:17:32.015Z,16.75
2017-12-20T00:20:00.509Z,15.50
2017-12-20T00:22:28.881Z,21.15
2017-12-20T00:24:57.260Z,17.77
2017-12-20T00:27:25.638Z,24.45
2017-12-20T00:29:53.963Z,15.15
2017-12-20T00:32:22.303Z,14.18
2017-12-20T00:34:50.341Z,13.50
2017-12-20T00:37:18.402Z,17.30
2017-12-20T00:39:46.438Z,13.05
2017-12-20T00:42:14.879Z,13.57
2017-12-20T00:44:43.198Z,12.15
2017-12-20T00:47:11.538Z,14.60
2017-12-20T00:49:39.854Z,9.15
2017-12-20T00:52:08.198Z,12.93
2017-12-20T00:54:36.515Z,16.05
2017-12-20T00:57:04.853Z,14.05
2017-12-20T00:59:33.194Z,12.88
2017-12-20T01:02:01.515Z,13.45
2017-12-20T01:04:29.921Z,14.43
2017-12-20T01:06:58.236Z,11.55
2017-12-20T01:09:26.577Z,12.35
2017-12-20T01:11:54.900Z,13.98
2017-12-20T01:14:23.238Z,15.40
2017-12-20T01:16:51.558Z,11.35
2017-12-20T01:19:19.919Z,13.93
2017-12-20T01:21:48.238Z,16.05
2017-12-20T01:24:16.583Z,11.27
2017-12-20T01:26:44.894Z,9.68
2017-12-20T01:29:13.234Z,15.88
2017-12-20T01:31:41.554Z,12.50
2017-12-20T01:34:09.977Z,13.45
2017-12-20T01:36:38.294Z,10.50
2017-12-20T01:39:06.738Z,10.15
2017-12-20T01:41:35.150Z,11.10
2017-12-20T01:44:03.469Z,10.93
2017-12-20T01:46:31.865Z,12.35
2017-12-20T01:49:00.238Z,10.55
2017-12-20T01:51:28.562Z,14.02
2017-12-20T01:53:56.902Z,12.05
2017-12-20T01:56:25.274Z,13.43
2017-12-20T01:58:53.610Z,12.13
2017-12-20T02:01:21.936Z,11.32
2017-12-20T02:03:50.322Z,14.50
2017-12-20T02:06:18.642Z,13.50
2017-12-20T02:08:46.982Z,12.20
2017-12-20T02:11:15.334Z,13.20
2017-12-20T02:13:43.708Z,12.73
2017-12-20T02:16:12.024Z,13.77
2017-12-20T02:18:40.422Z,15.00
2017-12-20T02:21:08.772Z,12.13
2017-12-20T02:23:37.115Z,13.38
2017-12-20T02:26:05.430Z,14.60
2017-12-20T02:28:33.771Z,9.20
2017-12-20T02:31:02.143Z,10.50
2017-12-20T02:33:31.364Z,9.48
2017-12-20T02:35:59.728Z,10.43
2017-12-20T02:38:37.922Z,7.57
2017-12-20T02:41:06.247Z,7.65
2017-12-20T02:43:34.588Z,8.88
2017-12-20T02:46:02.923Z,8.15
2017-12-20T02:48:31.261Z,8.02
2017-12-20T02:50:59.602Z,13.95
2017-12-20T02:53:27.938Z,8.82
2017-12-20T02:55:56.399Z,10.50
2017-12-20T02:58:24.737Z,5.82
2017-12-20T03:00:53.114Z,7.43
2017-12-20T03:03:21.446Z,6.60
2017-12-20T03:05:49.777Z,6.30
2017-12-20T03:08:18.095Z,6.37
2017-12-20T03:10:46.421Z,5.40
2017-12-20T03:13:14.770Z,7.40
2017-12-20T03:15:43.103Z,3.90
2017-12-20T03:18:11.424Z,7.20
2017-12-20T03:20:39.754Z,6.25
2017-12-20T03:23:08.104Z,5.10
2017-12-20T03:25:36.510Z,4.97
2017-12-20T03:28:04.854Z,3.87
2017-12-20T03:30:33.191Z,6.80
2017-12-20T03:33:01.535Z,6.07
2017-12-20T03:35:29.925Z,8.30
2017-12-20T03:37:58.231Z,4.90
2017-12-20T03:40:26.643Z,6.87
2017-12-20T03:42:55.018Z,4.93
2017-12-20T03:45:23.354Z,5.55
2017-12-20T03:47:51.674Z,8.20
2017-12-20T03:50:20.006Z,5.82
2017-12-20T03:52:48.318Z,8.68
2017-12-20T03:55:16.698Z,7.30
2017-12-20T03:57:45.006Z,5.43
2017-12-20T04:00:13.346Z,11.12
2017-12-20T04:02:41.807Z,6.47
2017-12-20T04:05:10.086Z,7.82
2017-12-20T04:07:38.416Z,8.50
2017-12-20T04:10:06.815Z,11.15
2017-12-20T04:12:35.110Z,7.12
2017-12-20T04:15:03.529Z,7.87
2017-12-20T04:17:31.890Z,9.27
2017-12-20T04:20:00.266Z,8.00
2017-12-20T04:22:28.624Z,13.13
2017-12-20T04:24:57.027Z,6.30
2017-12-20T04:27:25.338Z,7.30
2017-12-20T04:29:53.774Z,6.22
2017-12-20T04:32:22.087Z,7.00
2017-12-20T04:34:50.431Z,7.20
2017-12-20T04:37:18.803Z,7.65
2017-12-20T04:39:47.186Z,7.60
2017-12-20T04:42:15.490Z,6.05
2017-12-20T04:44:43.839Z,8.00
2017-12-20T04:47:12.142Z,7.45
2017-12-20T04:49:40.473Z,8.23
2017-12-20T04:52:08.794Z,7.47
2017-12-20T04:54:37.142Z,6.70
2017-12-20T04:57:05.459Z,5.60
2017-12-20T04:59:33.889Z,6.90
2017-12-20T05:02:02.197Z,5.22
2017-12-20T05:04:30.534Z,5.28
2017-12-20T05:06:58.846Z,7.43
2017-12-20T05:09:27.193Z,5.60
2017-12-20T05:11:55.610Z,9.70
2017-12-20T05:14:23.924Z,7.25
2017-12-20T05:16:52.364Z,5.85
2017-12-20T05:19:20.637Z,5.47
2017-12-20T05:21:49.104Z,7.07
2017-12-20T05:24:17.504Z,7.85
2017-12-20T05:26:45.939Z,11.57
2017-12-20T05:29:14.322Z,8.10
2017-12-20T05:31:42.676Z,7.35
2017-12-20T05:34:10.986Z,8.25
2017-12-20T05:36:39.326Z,6.15
2017-12-20T05:39:07.662Z,9.80
2017-12-20T05:41:36.103Z,7.72
2017-12-20T05:44:04.411Z,5.20
2017-12-20T05:46:32.746Z,7.10
2017-12-20T05:49:01.130Z,9.43
2017-12-20T05:51:29.492Z,5.47
2017-12-20T05:53:57.802Z,7.10
2017-12-20T05:56:26.142Z,9.35
2017-12-20T05:58:54.470Z,5.80
2017-12-20T06:01:22.874Z,5.28
2017-12-20T06:03:51.196Z,10.32
2017-12-20T06:06:19.531Z,6.87
2017-12-20T06:08:47.919Z,7.53
2017-12-20T06:11:16.289Z,7.45
2017-12-20T06:13:44.643Z,15.90
2017-12-20T06:16:13.078Z,17.42
2017-12-20T06:18:41.459Z,12.80
2017-12-20T06:21:09.840Z,9.80
2017-12-20T06:23:38.212Z,9.90
2017-12-20T06:26:06.590Z,10.55
2017-12-20T06:28:34.915Z,12.00
2017-12-20T06:31:03.327Z,14.15
2017-12-20T06:33:31.681Z,11.90
2017-12-20T06:36:00.078Z,14.85
2017-12-20T06:38:28.489Z,9.88
2017-12-20T06:40:56.851Z,11.85
2017-12-20T06:43:25.217Z,11.00
2017-12-20T06:45:53.688Z,23.65
2017-12-20T06:48:22.061Z,15.77
2017-12-20T06:50:50.470Z,13.93
2017-12-20T06:53:18.815Z,13.80
2017-12-20T06:55:47.163Z,12.45
2017-12-20T06:58:15.487Z,13.13
2017-12-20T07:00:43.830Z,18.10
2017-12-20T07:03:12.158Z,11.12
2017-12-20T07:05:40.508Z,13.85
2017-12-20T07:08:08.835Z,10.13
2017-12-20T07:10:37.236Z,14.95
2017-12-20T07:13:05.589Z,13.75
2017-12-20T07:15:33.923Z,15.60
2017-12-20T07:18:02.276Z,19.12
2017-12-20T07:20:30.622Z,18.20
2017-12-20T07:22:59.020Z,16.15
2017-12-20T07:25:27.343Z,13.40
2017-12-20T07:27:55.694Z,12.00
2017-12-20T07:30:24.032Z,9.40
2017-12-20T07:32:52.371Z,7.72
2017-12-20T07:35:20.698Z,8.07
2017-12-20T07:37:49.039Z,5.55
2017-12-20T07:40:17.361Z,6.82
2017-12-20T07:42:45.703Z,7.22
2017-12-20T07:45:14.022Z,7.97
2017-12-20T07:47:42.360Z,10.73
2017-12-20T07:50:10.686Z,9.45
2017-12-20T07:52:39.027Z,8.18
2017-12-20T07:55:07.343Z,8.70
2017-12-20T07:57:35.683Z,6.78
2017-12-20T08:00:04.020Z,11.35
2017-12-20T08:02:32.366Z,6.78
2017-12-20T08:05:00.702Z,10.45
2017-12-20T08:07:29.059Z,10.13
2017-12-20T08:09:57.374Z,6.30
2017-12-20T08:12:25.718Z,15.60
2017-12-20T08:14:54.530Z,12.37
2017-12-20T08:17:22.874Z,11.63
2017-12-20T08:19:51.194Z,8.73
2017-12-20T08:22:19.539Z,6.27
2017-12-20T08:24:47.853Z,9.77
2017-12-20T08:27:16.199Z,10.45
2017-12-20T08:29:44.538Z,9.90
2017-12-20T08:32:12.895Z,10.60
2017-12-20T08:34:41.319Z,6.72
2017-12-20T08:37:09.662Z,11.77
2017-12-20T08:39:37.986Z,11.60
2017-12-20T08:42:06.330Z,7.43
2017-12-20T08:44:34.653Z,9.27
2017-12-20T08:47:02.999Z,8.23
2017-12-20T08:49:31.325Z,8.80
2017-12-20T08:51:59.966Z,7.73
2017-12-20T08:54:29.050Z,13.00
2017-12-20T08:56:57.390Z,7.27
2017-12-20T08:59:25.715Z,11.40
2017-12-20T09:01:54.077Z,6.35
2017-12-20T09:04:22.397Z,6.75
2017-12-20T09:06:50.744Z,7.23
2017-12-20T09:09:19.055Z,8.60
2017-12-20T09:11:47.420Z,5.40
2017-12-20T09:14:15.791Z,7.90
2017-12-20T09:16:44.466Z,4.93
2017-12-20T09:19:12.907Z,8.23
2017-12-20T09:21:41.284Z,8.83
2017-12-20T09:24:09.667Z,6.25
2017-12-20T09:26:38.046Z,4.57
2017-12-20T09:29:06.449Z,5.53
2017-12-20T09:31:34.844Z,8.80
2017-12-20T09:34:03.271Z,11.57
2017-12-20T09:36:31.717Z,6.43
2017-12-20T09:39:00.194Z,11.10
2017-12-20T09:41:28.571Z,6.60
2017-12-20T09:43:57.007Z,6.15
2017-12-20T09:46:25.387Z,7.73
2017-12-20T09:48:53.755Z,9.90
2017-12-20T09:51:22.285Z,11.12
2017-12-20T09:53:50.734Z,7.60
2017-12-20T09:56:19.094Z,8.90
2017-12-20T09:58:47.467Z,17.90
2017-12-20T10:01:16.137Z,9.93
2017-12-20T10:03:44.761Z,17.48
2017-12-20T10:06:14.773Z,12.47
2017-12-20T10:08:43.108Z,8.68
2017-12-20T10:11:11.443Z,16.43
2017-12-20T10:13:39.795Z,12.10
2017-12-20T10:16:08.123Z,18.50
2017-12-20T10:18:36.470Z,8.93
2017-12-20T10:21:04.786Z,9.68
2017-12-20T10:23:33.129Z,8.18
2017-12-20T10:26:01.453Z,8.10
2017-12-20T10:28:29.811Z,11.00
2017-12-20T10:30:58.135Z,8.20
2017-12-20T10:33:26.488Z,10.73
2017-12-20T10:35:54.804Z,9.93
2017-12-20T10:38:23.142Z,7.53
2017-12-20T10:40:51.475Z,11.20
2017-12-20T10:43:20.665Z,10.50
2017-12-20T10:45:48.989Z,7.90
2017-12-20T10:48:17.346Z,12.27
2017-12-20T10:50:45.671Z,10.93
2017-12-20T10:53:14.358Z,13.05
2017-12-20T10:55:42.684Z,8.95
2017-12-20T10:58:11.027Z,10.03
2017-12-20T11:00:39.350Z,10.53
2017-12-20T11:03:07.695Z,19.27
2017-12-20T11:05:36.022Z,12.07
2017-12-20T11:08:04.366Z,15.07
2017-12-20T11:10:32.690Z,12.17
2017-12-20T11:13:01.596Z,12.10
2017-12-20T11:15:29.910Z,13.13
2017-12-20T11:17:58.270Z,16.20
2017-12-20T11:20:26.589Z,11.97
2017-12-20T11:22:55.904Z,18.60
2017-12-20T11:25:24.255Z,13.48
2017-12-20T11:27:52.586Z,12.02
2017-12-20T11:30:20.935Z,16.03
2017-12-20T11:32:49.259Z,14.82
2017-12-20T11:35:17.602Z,14.27
2017-12-20T11:37:45.931Z,14.20
2017-12-20T11:40:14.269Z,13.80
2017-12-20T11:42:42.594Z,13.80
2017-12-20T11:45:10.954Z,13.27
2017-12-20T11:47:39.279Z,15.73
2017-12-20T11:50:07.622Z,22.63
2017-12-20T11:52:35.947Z,16.90
2017-12-20T11:55:04.302Z,13.67
2017-12-20T11:57:32.626Z,12.80
2017-12-20T12:00:00.991Z,12.33
2017-12-20T12:02:29.314Z,14.38
2017-12-20T12:04:57.678Z,22.80
2017-12-20T12:07:26.012Z,19.95
2017-12-20T12:09:54.381Z,15.10
2017-12-20T12:12:22.722Z,11.53
2017-12-20T12:14:51.070Z,10.40
2017-12-20T12:17:19.397Z,15.57
2017-12-20T12:19:47.753Z,11.88
2017-12-20T12:22:16.075Z,13.10
2017-12-20T12:24:44.422Z,14.80
2017-12-20T12:27:12.755Z,15.03
2017-12-20T12:29:51.989Z,13.30
2017-12-20T12:32:33.023Z,24.63
2017-12-20T12:35:01.397Z,17.98
2017-12-20T12:37:29.719Z,20.50
2017-12-20T12:39:58.965Z,21.73
2017-12-20T12:42:27.428Z,22.97
2017-12-20T12:44:55.778Z,21.07
2017-12-20T12:47:24.116Z,24.70
2017-12-20T12:49:52.475Z,25.77
2017-12-20T12:52:20.821Z,23.30
2017-12-20T12:54:49.199Z,27.75
2017-12-20T12:57:17.526Z,28.57
2017-12-20T12:59:45.861Z,30.07
2017-12-20T13:02:14.206Z,29.55
2017-12-20T13:04:42.543Z,26.37
2017-12-20T13:07:10.897Z,34.80
2017-12-20T13:09:39.222Z,30.40
2017-12-20T13:12:07.578Z,23.93
2017-12-20T13:14:35.915Z,27.75
2017-12-20T13:17:05.078Z,28.30
2017-12-20T13:19:33.421Z,27.58
2017-12-20T13:22:02.475Z,32.33
2017-12-20T13:24:30.797Z,29.83
2017-12-20T13:26:59.667Z,26.80
2017-12-20T13:29:27.990Z,29.03
2017-12-20T13:31:56.346Z,29.07
2017-12-20T13:34:24.684Z,33.23
2017-12-20T13:36:53.042Z,29.50
2017-12-20T13:39:21.370Z,28.70
2017-12-20T13:41:49.722Z,28.95
2017-12-20T13:44:18.049Z,35.53
2017-12-20T13:46:47.411Z,32.40
2017-12-20T13:49:15.758Z,31.50
2017-12-20T13:51:44.210Z,32.73
2017-12-20T13:54:12.631Z,32.63
2017-12-20T13:56:40.978Z,34.50
2017-12-20T13:59:09.387Z,35.70
2017-12-20T14:01:37.797Z,30.05
2017-12-20T14:04:06.310Z,27.40
2017-12-20T14:06:35.402Z,24.07
2017-12-20T14:09:03.739Z,27.17
2017-12-20T14:11:33.023Z,25.77
2017-12-20T14:14:01.401Z,29.57
2017-12-20T14:16:29.750Z,31.40
2017-12-20T14:18:58.154Z,31.70
2017-12-20T14:21:26.535Z,31.23
2017-12-20T14:23:56.008Z,31.50
2017-12-20T14:26:24.557Z,29.23
2017-12-20T14:28:53.575Z,27.95
2017-12-20T14:31:22.935Z,27.62
2017-12-20T14:33:51.541Z,31.67
2017-12-20T14:36:19.894Z,30.53
2017-12-20T14:38:48.250Z,96.57
2017-12-20T14:41:16.979Z,36.87
2017-12-20T14:43:45.450Z,78.45
2017-12-20T14:46:13.911Z,36.70
2017-12-20T14:48:42.264Z,32.03
2017-12-20T14:51:10.595Z,27.83
2017-12-20T14:53:38.942Z,31.10
2017-12-20T14:56:07.295Z,31.53
2017-12-20T14:58:35.649Z,28.92
2017-12-20T15:01:03.981Z,30.50
2017-12-20T15:03:32.387Z,33.13
2017-12-20T15:06:00.728Z,38.63
2017-12-20T15:08:29.149Z,31.50
2017-12-20T15:10:57.482Z,31.53
2017-12-20T15:13:25.859Z,33.77
2017-12-20T15:15:54.231Z,31.00
2017-12-20T15:18:22.618Z,31.67
2017-12-20T15:20:50.959Z,28.93
2017-12-20T15:23:19.314Z,25.98
2017-12-20T15:25:48.754Z,34.70
2017-12-20T15:28:18.021Z,25.80
2017-12-20T15:30:47.135Z,25.40
2017-12-20T15:33:15.543Z,26.43
2017-12-20T15:35:43.882Z,24.90
2017-12-20T15:38:12.236Z,22.33
2017-12-20T15:40:40.608Z,24.90
2017-12-20T15:43:08.968Z,20.90
2017-12-20T15:45:37.295Z,25.43
2017-12-20T15:48:05.646Z,23.40
2017-12-20T15:50:34.037Z,31.43
2017-12-20T15:53:02.418Z,35.05
2017-12-20T15:55:30.793Z,25.63
2017-12-20T15:57:59.142Z,26.02
2017-12-20T16:00:29.658Z,32.65
2017-12-20T16:02:58.038Z,24.30
2017-12-20T16:05:26.371Z,27.40
2017-12-20T16:07:54.747Z,25.52
2017-12-20T16:10:23.861Z,26.63
2017-12-20T16:12:52.214Z,26.50
2017-12-20T16:15:20.550Z,26.52
2017-12-20T16:17:48.893Z,24.03
2017-12-20T16:20:17.243Z,29.02
2017-12-20T16:22:45.588Z,30.07
2017-12-20T16:25:13.910Z,33.80
2017-12-20T16:27:42.242Z,30.17
2017-12-20T16:30:10.590Z,54.33
2017-12-20T16:32:38.922Z,30.40
2017-12-20T16:35:07.278Z,30.50
2017-12-20T16:37:35.615Z,27.30
2017-12-20T16:40:03.981Z,26.17
2017-12-20T16:42:32.314Z,23.80
2017-12-20T16:45:00.799Z,26.20
2017-12-20T16:47:29.130Z,24.35
2017-12-20T16:49:57.478Z,25.33
2017-12-20T16:52:25.802Z,24.43
2017-12-20T16:54:54.150Z,31.20
2017-12-20T16:57:22.478Z,23.63
2017-12-20T16:59:50.826Z,27.20
2017-12-20T17:02:19.451Z,23.63
2017-12-20T17:04:47.888Z,24.30
2017-12-20T17:07:16.210Z,28.13
2017-12-20T17:09:44.566Z,26.92
2017-12-20T17:12:12.902Z,25.87
2017-12-20T17:14:41.263Z,31.07
2017-12-20T17:17:09.598Z,28.23
2017-12-20T17:19:37.950Z,26.93
2017-12-20T17:22:06.287Z,29.20
2017-12-20T17:24:34.641Z,25.30
2017-12-20T17:27:02.974Z,37.03
2017-12-20T17:29:31.329Z,37.43
2017-12-20T17:31:59.661Z,29.87
2017-12-20T17:34:28.025Z,27.87
2017-12-20T17:36:56.362Z,23.80
2017-12-20T17:39:24.723Z,29.37
2017-12-20T17:41:53.074Z,29.40
2017-12-20T17:44:21.436Z,25.53
2017-12-20T17:46:49.758Z,36.60
2017-12-20T17:49:18.839Z,37.63
2017-12-20T17:51:47.170Z,23.53
2017-12-20T17:54:15.531Z,22.10
2017-12-20T17:56:43.858Z,23.25
2017-12-20T17:59:12.198Z,22.63
2017-12-20T18:01:40.525Z,32.97
2017-12-20T18:04:08.879Z,27.40
2017-12-20T18:06:37.214Z,22.80
2017-12-20T18:09:06.434Z,21.95
2017-12-20T18:11:34.762Z,22.60
2017-12-20T18:14:03.124Z,20.73
2017-12-20T18:16:31.554Z,20.45
2017-12-20T18:18:59.883Z,21.90
2017-12-20T18:21:28.227Z,21.57
2017-12-20T18:23:56.580Z,32.83
2017-12-20T18:26:24.902Z,28.57
2017-12-20T18:28:54.086Z,33.20
2017-12-20T18:31:22.418Z,49.10
2017-12-20T18:33:50.807Z,25.00
2017-12-20T18:36:19.292Z,36.93
2017-12-20T18:38:47.652Z,33.53
2017-12-20T18:41:16.010Z,29.23
2017-12-20T18:43:44.344Z,30.53
2017-12-20T18:46:12.698Z,31.57
2017-12-20T18:48:41.107Z,35.50
2017-12-20T18:51:09.490Z,32.00
2017-12-20T18:53:37.829Z,43.93
2017-12-20T18:56:07.198Z,31.90
2017-12-20T18:58:35.533Z,36.67
2017-12-20T19:01:03.887Z,27.10
2017-12-20T19:03:32.221Z,31.90
2017-12-20T19:06:00.585Z,34.42
2017-12-20T19:08:28.920Z,36.07
2017-12-20T19:10:57.279Z,43.50
2017-12-20T19:13:25.610Z,40.53
2017-12-20T19:15:53.970Z,37.33
2017-12-20T19:18:22.316Z,36.27
2017-12-20T19:20:50.665Z,41.70
2017-12-20T19:23:18.993Z,34.47
2017-12-20T19:25:49.086Z,38.65
2017-12-20T19:28:17.445Z,37.20
2017-12-20T19:30:45.778Z,31.13
2017-12-20T19:33:14.114Z,46.87
2017-12-20T19:35:43.448Z,44.87
2017-12-20T19:38:11.783Z,46.97
2017-12-20T19:40:40.135Z,51.70
2017-12-20T19:43:08.474Z,55.65
2017-12-20T19:45:36.874Z,50.57
2017-12-20T19:48:05.211Z,51.23
2017-12-20T19:50:33.558Z,45.77
2017-12-20T19:53:01.996Z,45.83
2017-12-20T19:55:30.491Z,55.27
2017-12-20T19:57:58.834Z,51.63
2017-12-20T20:00:27.221Z,44.90
2017-12-20T20:02:55.566Z,59.60
2017-12-20T20:05:23.967Z,54.78
2017-12-20T20:07:52.320Z,72.07
2017-12-20T20:10:20.692Z,57.57
2017-12-20T20:12:49.025Z,67.60
2017-12-20T20:15:17.378Z,62.23
2017-12-20T20:17:46.338Z,65.97
2017-12-20T20:20:14.690Z,55.00
2017-12-20T20:22:43.067Z,57.65
2017-12-20T20:25:12.278Z,62.50
2017-12-20T20:27:40.740Z,73.97
2017-12-20T20:30:09.978Z,62.35
2017-12-20T20:32:38.306Z,61.23
2017-12-20T20:35:06.683Z,73.40
2017-12-20T20:37:35.011Z,61.97
2017-12-20T20:40:03.350Z,59.10
2017-12-20T20:42:31.713Z,68.03
2017-12-20T20:45:00.047Z,67.37
2017-12-20T20:47:28.409Z,65.97
2017-12-20T20:49:59.742Z,48.10
2017-12-20T20:52:31.126Z,57.43
2017-12-20T20:54:59.458Z,60.63
2017-12-20T20:57:27.816Z,56.73
2017-12-20T20:59:56.151Z,57.80
2017-12-20T21:02:24.506Z,56.10
2017-12-20T21:04:52.838Z,64.43
2017-12-20T21:07:21.210Z,56.13
2017-12-20T21:09:49.530Z,56.90
2017-12-20T21:12:18.015Z,65.27
2017-12-20T21:14:47.396Z,61.07
2017-12-20T21:17:15.802Z,51.50
2017-12-20T21:19:44.744Z,62.23
2017-12-20T21:22:13.134Z,48.80
2017-12-20T21:24:41.674Z,58.33
2017-12-20T21:27:10.239Z,43.57
2017-12-20T21:29:38.698Z,65.95
2017-12-20T21:32:07.066Z,61.57
2017-12-20T21:34:35.405Z,60.33
2017-12-20T21:37:03.935Z,61.23
2017-12-20T21:39:32.363Z,47.67
2017-12-20T21:42:00.779Z,49.90
2017-12-20T21:44:29.115Z,44.97
2017-12-20T21:46:57.472Z,42.80
2017-12-20T21:49:25.802Z,56.13
2017-12-20T21:51:54.163Z,53.67
2017-12-20T21:54:22.541Z,52.23
2017-12-20T21:56:50.900Z,36.97
2017-12-20T21:59:19.237Z,55.70
2017-12-20T22:01:47.590Z,40.37
2017-12-20T22:04:15.979Z,41.20
2017-12-20T22:06:44.324Z,39.10
2017-12-20T22:09:12.661Z,45.07
2017-12-20T22:11:41.042Z,44.30
2017-12-20T22:14:09.379Z,51.70
2017-12-20T22:16:37.806Z,50.20
2017-12-20T22:19:06.229Z,49.50
2017-12-20T22:21:34.595Z,55.70
2017-12-20T22:24:02.926Z,51.53
2017-12-20T22:26:31.283Z,47.70
2017-12-20T22:28:59.619Z,38.35
2017-12-20T22:31:28.549Z,45.38
2017-12-20T22:33:56.883Z,44.87
2017-12-20T22:36:25.233Z,46.33
2017-12-20T22:38:53.569Z,45.85
2017-12-20T22:41:22.659Z,44.23
2017-12-20T22:43:51.051Z,47.22
2017-12-20T22:46:19.438Z,50.93
2017-12-20T22:48:47.778Z,40.30
2017-12-20T22:51:16.110Z,36.78
2017-12-20T22:53:44.471Z,45.03
2017-12-20T22:56:12.801Z,48.67
2017-12-20T22:58:41.160Z,48.33
2017-12-20T23:01:09.496Z,56.00
2017-12-20T23:03:37.843Z,35.88
2017-12-20T23:06:07.158Z,56.43
2017-12-20T23:08:35.510Z,44.13
2017-12-20T23:11:03.851Z,53.70
2017-12-20T23:13:32.265Z,55.13
2017-12-20T23:16:00.598Z,41.33
2017-12-20T23:21:08.406Z,52.87
2017-12-20T23:23:36.821Z,48.93
2017-12-20T23:26:05.159Z,61.78
2017-12-20T23:28:33.514Z,61.80
2017-12-20T23:31:01.849Z,53.38
2017-12-20T23:33:30.201Z,48.95
2017-12-20T23:35:58.539Z,51.17
2017-12-20T23:38:27.835Z,48.53
2017-12-20T23:40:56.399Z,60.60
2017-12-20T23:43:25.066Z,45.07
2017-12-20T23:45:55.307Z,59.03
2017-12-20T23:48:23.662Z,59.95
2017-12-20T23:50:51.998Z,44.75
2017-12-20T23:53:20.354Z,61.80
2017-12-20T23:55:48.681Z,46.33
2017-12-20T23:58:17.035Z,52.20
